sensor_id;sensor_type;location;lat;lon;timestamp;P1;durP1;ratioP1;P2;durP2;ratioP2
22660;SDS011;11497;52.222;21.246;2023-02-21T00:01:53;4.82;;;2.40;;
22660;SDS011;11497;52.222;21.246;2023-02-21T00:04:40;5.88;;;2.65;;
22660;SDS011;11497;52.222;21.246;2023-02-21T00:07:27;4.78;;;2.92;;
22660;SDS011;11497;52.222;21.246;2023-02-21T00:10:14;4.75;;;3.05;;
22660;SDS011;11497;52.222;21.246;2023-02-21T00:13:01;5.82;;;3.10;;
22660;SDS011;11497;52.222;21.246;2023-02-21T00:15:48;7.03;;;3.22;;
22660;SDS011;11497;52.222;21.246;2023-02-21T00:18:35;5.60;;;3.40;;
22660;SDS011;11497;52.222;21.246;2023-02-21T00:21:22;5.82;;;3.90;;
22660;SDS011;11497;52.222;21.246;2023-02-21T00:24:11;4.72;;;3.30;;
22660;SDS011;11497;52.222;21.246;2023-02-21T00:27:00;6.15;;;3.38;;
22660;SDS011;11497;52.222;21.246;2023-02-21T00:29:47;7.05;;;4.20;;
22660;SDS011;11497;52.222;21.246;2023-02-21T00:32:35;6.97;;;3.67;;
22660;SDS011;11497;52.222;21.246;2023-02-21T00:35:22;5.90;;;3.25;;
22660;SDS011;11497;52.222;21.246;2023-02-21T00:38:09;5.28;;;2.75;;
22660;SDS011;11497;52.222;21.246;2023-02-21T00:40:56;3.22;;;2.42;;
22660;SDS011;11497;52.222;21.246;2023-02-21T00:43:43;5.07;;;2.40;;
22660;SDS011;11497;52.222;21.246;2023-02-21T00:46:29;5.45;;;2.72;;
22660;SDS011;11497;52.222;21.246;2023-02-21T00:49:16;4.05;;;2.47;;
22660;SDS011;11497;52.222;21.246;2023-02-21T00:52:03;4.80;;;2.88;;
22660;SDS011;11497;52.222;21.246;2023-02-21T00:54:50;5.30;;;2.88;;
22660;SDS011;11497;52.222;21.246;2023-02-21T00:57:36;5.25;;;2.70;;
22660;SDS011;11497;52.222;21.246;2023-02-21T01:00:24;4.20;;;2.85;;
22660;SDS011;11497;52.222;21.246;2023-02-21T01:03:10;6.95;;;3.80;;
22660;SDS011;11497;52.222;21.246;2023-02-21T01:05:57;6.85;;;2.97;;
22660;SDS011;11497;52.222;21.246;2023-02-21T01:08:45;5.32;;;3.00;;
22660;SDS011;11497;52.222;21.246;2023-02-21T01:11:32;4.57;;;2.88;;
22660;SDS011;11497;52.222;21.246;2023-02-21T01:14:18;4.22;;;2.70;;
22660;SDS011;11497;52.222;21.246;2023-02-21T01:17:05;3.20;;;2.25;;
22660;SDS011;11497;52.222;21.246;2023-02-21T01:19:51;3.67;;;2.45;;
22660;SDS011;11497;52.222;21.246;2023-02-21T01:22:38;3.53;;;2.30;;
22660;SDS011;11497;52.222;21.246;2023-02-21T01:25:25;3.10;;;2.10;;
22660;SDS011;11497;52.222;21.246;2023-02-21T01:28:11;2.53;;;1.77;;
22660;SDS011;11497;52.222;21.246;2023-02-21T01:31:01;3.78;;;2.00;;
22660;SDS011;11497;52.222;21.246;2023-02-21T01:33:47;2.97;;;1.77;;
22660;SDS011;11497;52.222;21.246;2023-02-21T01:36:34;2.90;;;1.70;;
22660;SDS011;11497;52.222;21.246;2023-02-21T01:39:20;3.22;;;1.80;;
22660;SDS011;11497;52.222;21.246;2023-02-21T01:42:08;2.85;;;1.85;;
22660;SDS011;11497;52.222;21.246;2023-02-21T01:48:07;2.95;;;1.70;;
22660;SDS011;11497;52.222;21.246;2023-02-21T01:51:02;3.53;;;1.85;;
22660;SDS011;11497;52.222;21.246;2023-02-21T01:53:50;5.38;;;1.58;;
22660;SDS011;11497;52.222;21.246;2023-02-21T01:56:38;4.57;;;1.75;;
22660;SDS011;11497;52.222;21.246;2023-02-21T01:59:25;3.78;;;1.70;;
22660;SDS011;11497;52.222;21.246;2023-02-21T02:05:22;5.25;;;1.63;;
22660;SDS011;11497;52.222;21.246;2023-02-21T02:08:11;3.97;;;2.25;;
22660;SDS011;11497;52.222;21.246;2023-02-21T02:11:08;3.42;;;2.05;;
22660;SDS011;11497;52.222;21.246;2023-02-21T02:20:00;4.10;;;1.92;;
22660;SDS011;11497;52.222;21.246;2023-02-21T02:23:23;6.60;;;2.50;;
22660;SDS011;11497;52.222;21.246;2023-02-21T02:34:41;3.90;;;1.85;;
22660;SDS011;11497;52.222;21.246;2023-02-21T02:37:29;4.20;;;1.70;;
22660;SDS011;11497;52.222;21.246;2023-02-21T02:45:24;3.47;;;2.15;;
22660;SDS011;11497;52.222;21.246;2023-02-21T02:50:48;8.57;;;2.30;;
22660;SDS011;11497;52.222;21.246;2023-02-21T02:53:19;8.02;;;2.40;;
22660;SDS011;11497;52.222;21.246;2023-02-21T02:58:26;8.30;;;2.20;;
22660;SDS011;11497;52.222;21.246;2023-02-21T03:12:04;10.68;;;2.15;;
22660;SDS011;11497;52.222;21.246;2023-02-21T03:14:50;6.85;;;2.90;;
22660;SDS011;11497;52.222;21.246;2023-02-21T03:17:29;6.90;;;2.53;;
22660;SDS011;11497;52.222;21.246;2023-02-21T03:20:03;6.38;;;2.65;;
22660;SDS011;11497;52.222;21.246;2023-02-21T03:22:33;5.18;;;2.47;;
22660;SDS011;11497;52.222;21.246;2023-02-21T03:25:02;5.93;;;2.60;;
22660;SDS011;11497;52.222;21.246;2023-02-21T03:27:30;9.68;;;3.00;;
22660;SDS011;11497;52.222;21.246;2023-02-21T03:30:10;9.00;;;3.08;;
22660;SDS011;11497;52.222;21.246;2023-02-21T03:32:42;5.32;;;2.60;;
22660;SDS011;11497;52.222;21.246;2023-02-21T03:35:19;10.55;;;3.00;;
22660;SDS011;11497;52.222;21.246;2023-02-21T03:37:49;8.13;;;2.80;;
22660;SDS011;11497;52.222;21.246;2023-02-21T03:40:29;11.70;;;3.95;;
22660;SDS011;11497;52.222;21.246;2023-02-21T03:43:00;11.68;;;3.75;;
22660;SDS011;11497;52.222;21.246;2023-02-21T03:45:40;9.27;;;3.75;;
22660;SDS011;11497;52.222;21.246;2023-02-21T03:48:12;9.77;;;4.10;;
22660;SDS011;11497;52.222;21.246;2023-02-21T03:50:46;11.90;;;3.58;;
22660;SDS011;11497;52.222;21.246;2023-02-21T03:53:16;8.48;;;4.18;;
22660;SDS011;11497;52.222;21.246;2023-02-21T03:55:45;9.80;;;3.80;;
22660;SDS011;11497;52.222;21.246;2023-02-21T03:58:19;11.18;;;3.47;;
22660;SDS011;11497;52.222;21.246;2023-02-21T04:00:48;11.80;;;3.50;;
22660;SDS011;11497;52.222;21.246;2023-02-21T04:03:17;9.50;;;3.20;;
22660;SDS011;11497;52.222;21.246;2023-02-21T04:05:56;7.57;;;3.05;;
22660;SDS011;11497;52.222;21.246;2023-02-21T04:08:25;4.85;;;2.90;;
22660;SDS011;11497;52.222;21.246;2023-02-21T04:10:53;9.75;;;3.53;;
22660;SDS011;11497;52.222;21.246;2023-02-21T04:13:24;8.80;;;3.17;;
22660;SDS011;11497;52.222;21.246;2023-02-21T04:15:54;6.15;;;2.67;;
22660;SDS011;11497;52.222;21.246;2023-02-21T04:18:23;10.52;;;3.58;;
22660;SDS011;11497;52.222;21.246;2023-02-21T04:20:53;8.50;;;2.65;;
22660;SDS011;11497;52.222;21.246;2023-02-21T04:23:21;7.60;;;3.42;;
22660;SDS011;11497;52.222;21.246;2023-02-21T04:25:49;9.90;;;3.38;;
22660;SDS011;11497;52.222;21.246;2023-02-21T04:28:25;12.88;;;3.40;;
22660;SDS011;11497;52.222;21.246;2023-02-21T04:30:53;10.90;;;3.20;;
22660;SDS011;11497;52.222;21.246;2023-02-21T04:33:21;6.32;;;3.10;;
22660;SDS011;11497;52.222;21.246;2023-02-21T04:35:49;12.00;;;3.17;;
22660;SDS011;11497;52.222;21.246;2023-02-21T04:38:30;13.23;;;3.80;;
22660;SDS011;11497;52.222;21.246;2023-02-21T04:40:58;13.18;;;3.92;;
22660;SDS011;11497;52.222;21.246;2023-02-21T04:43:28;15.68;;;4.07;;
22660;SDS011;11497;52.222;21.246;2023-02-21T04:45:56;13.75;;;3.22;;
22660;SDS011;11497;52.222;21.246;2023-02-21T04:48:24;10.25;;;3.17;;
22660;SDS011;11497;52.222;21.246;2023-02-21T04:50:53;8.40;;;3.33;;
22660;SDS011;11497;52.222;21.246;2023-02-21T04:53:27;15.02;;;3.15;;
22660;SDS011;11497;52.222;21.246;2023-02-21T04:55:55;13.43;;;3.25;;
22660;SDS011;11497;52.222;21.246;2023-02-21T04:58:22;9.25;;;2.67;;
22660;SDS011;11497;52.222;21.246;2023-02-21T05:00:54;13.63;;;3.13;;
22660;SDS011;11497;52.222;21.246;2023-02-21T05:03:22;9.95;;;3.55;;
22660;SDS011;11497;52.222;21.246;2023-02-21T05:05:50;7.90;;;3.47;;
22660;SDS011;11497;52.222;21.246;2023-02-21T05:08:18;10.18;;;3.13;;
22660;SDS011;11497;52.222;21.246;2023-02-21T05:10:46;12.02;;;2.60;;
22660;SDS011;11497;52.222;21.246;2023-02-21T05:13:14;9.93;;;2.88;;
22660;SDS011;11497;52.222;21.246;2023-02-21T05:15:42;13.57;;;2.90;;
22660;SDS011;11497;52.222;21.246;2023-02-21T05:18:10;10.00;;;2.55;;
22660;SDS011;11497;52.222;21.246;2023-02-21T05:20:38;17.30;;;2.97;;
22660;SDS011;11497;52.222;21.246;2023-02-21T05:23:06;10.45;;;2.42;;
22660;SDS011;11497;52.222;21.246;2023-02-21T05:25:39;11.77;;;2.30;;
22660;SDS011;11497;52.222;21.246;2023-02-21T05:28:07;12.82;;;2.30;;
22660;SDS011;11497;52.222;21.246;2023-02-21T05:30:35;7.65;;;2.05;;
22660;SDS011;11497;52.222;21.246;2023-02-21T05:33:03;9.95;;;2.47;;
22660;SDS011;11497;52.222;21.246;2023-02-21T05:35:31;10.50;;;2.20;;
22660;SDS011;11497;52.222;21.246;2023-02-21T05:37:58;8.52;;;2.25;;
22660;SDS011;11497;52.222;21.246;2023-02-21T05:40:26;7.35;;;2.83;;
22660;SDS011;11497;52.222;21.246;2023-02-21T05:42:54;13.20;;;2.08;;
22660;SDS011;11497;52.222;21.246;2023-02-21T05:45:22;8.82;;;2.22;;
22660;SDS011;11497;52.222;21.246;2023-02-21T05:47:50;10.63;;;2.67;;
22660;SDS011;11497;52.222;21.246;2023-02-21T05:50:22;8.18;;;1.95;;
22660;SDS011;11497;52.222;21.246;2023-02-21T05:52:49;6.65;;;2.33;;
22660;SDS011;11497;52.222;21.246;2023-02-21T05:55:17;12.93;;;2.65;;
22660;SDS011;11497;52.222;21.246;2023-02-21T05:57:45;7.15;;;2.00;;
22660;SDS011;11497;52.222;21.246;2023-02-21T06:00:17;10.68;;;2.20;;
22660;SDS011;11497;52.222;21.246;2023-02-21T06:02:46;7.40;;;2.33;;
22660;SDS011;11497;52.222;21.246;2023-02-21T06:05:15;9.75;;;2.53;;
22660;SDS011;11497;52.222;21.246;2023-02-21T06:07:43;8.57;;;2.22;;
22660;SDS011;11497;52.222;21.246;2023-02-21T06:10:11;8.90;;;2.42;;
22660;SDS011;11497;52.222;21.246;2023-02-21T06:12:39;7.15;;;2.08;;
22660;SDS011;11497;52.222;21.246;2023-02-21T06:15:07;9.02;;;2.15;;
22660;SDS011;11497;52.222;21.246;2023-02-21T06:17:36;13.88;;;2.50;;
22660;SDS011;11497;52.222;21.246;2023-02-21T06:20:04;10.65;;;2.50;;
22660;SDS011;11497;52.222;21.246;2023-02-21T06:22:33;8.45;;;2.75;;
22660;SDS011;11497;52.222;21.246;2023-02-21T06:25:01;7.72;;;1.92;;
22660;SDS011;11497;52.222;21.246;2023-02-21T06:27:29;7.72;;;2.33;;
22660;SDS011;11497;52.222;21.246;2023-02-21T06:29:57;7.63;;;2.17;;
22660;SDS011;11497;52.222;21.246;2023-02-21T06:32:25;7.93;;;1.98;;
22660;SDS011;11497;52.222;21.246;2023-02-21T06:34:53;12.05;;;2.40;;
22660;SDS011;11497;52.222;21.246;2023-02-21T06:37:21;11.45;;;2.60;;
22660;SDS011;11497;52.222;21.246;2023-02-21T06:39:49;9.57;;;2.50;;
22660;SDS011;11497;52.222;21.246;2023-02-21T06:42:17;11.48;;;3.00;;
22660;SDS011;11497;52.222;21.246;2023-02-21T06:44:46;10.63;;;2.78;;
22660;SDS011;11497;52.222;21.246;2023-02-21T06:47:15;14.00;;;3.10;;
22660;SDS011;11497;52.222;21.246;2023-02-21T06:49:44;10.82;;;2.90;;
22660;SDS011;11497;52.222;21.246;2023-02-21T06:52:11;12.05;;;2.63;;
22660;SDS011;11497;52.222;21.246;2023-02-21T06:54:40;14.50;;;3.13;;
22660;SDS011;11497;52.222;21.246;2023-02-21T06:57:07;13.98;;;2.85;;
22660;SDS011;11497;52.222;21.246;2023-02-21T06:59:36;15.45;;;3.42;;
22660;SDS011;11497;52.222;21.246;2023-02-21T07:02:03;11.00;;;2.50;;
22660;SDS011;11497;52.222;21.246;2023-02-21T07:04:31;12.68;;;2.65;;
22660;SDS011;11497;52.222;21.246;2023-02-21T07:06:59;9.63;;;2.20;;
22660;SDS011;11497;52.222;21.246;2023-02-21T07:09:27;9.27;;;2.10;;
22660;SDS011;11497;52.222;21.246;2023-02-21T07:11:55;12.82;;;2.90;;
22660;SDS011;11497;52.222;21.246;2023-02-21T07:14:23;7.80;;;2.53;;
22660;SDS011;11497;52.222;21.246;2023-02-21T07:16:50;9.02;;;2.25;;
22660;SDS011;11497;52.222;21.246;2023-02-21T07:19:18;11.43;;;3.03;;
22660;SDS011;11497;52.222;21.246;2023-02-21T07:21:46;15.18;;;2.83;;
22660;SDS011;11497;52.222;21.246;2023-02-21T07:24:14;7.10;;;2.28;;
22660;SDS011;11497;52.222;21.246;2023-02-21T07:26:42;16.13;;;2.65;;
22660;SDS011;11497;52.222;21.246;2023-02-21T07:29:10;12.45;;;2.78;;
22660;SDS011;11497;52.222;21.246;2023-02-21T07:31:38;15.07;;;2.70;;
22660;SDS011;11497;52.222;21.246;2023-02-21T07:34:06;16.02;;;2.72;;
22660;SDS011;11497;52.222;21.246;2023-02-21T07:36:36;9.43;;;2.33;;
22660;SDS011;11497;52.222;21.246;2023-02-21T07:39:06;9.38;;;2.38;;
22660;SDS011;11497;52.222;21.246;2023-02-21T07:41:34;11.98;;;2.45;;
22660;SDS011;11497;52.222;21.246;2023-02-21T07:44:02;10.05;;;2.70;;
22660;SDS011;11497;52.222;21.246;2023-02-21T07:46:30;7.28;;;2.30;;
22660;SDS011;11497;52.222;21.246;2023-02-21T07:48:58;9.95;;;2.80;;
22660;SDS011;11497;52.222;21.246;2023-02-21T07:51:26;16.02;;;3.20;;
22660;SDS011;11497;52.222;21.246;2023-02-21T07:53:55;16.95;;;3.42;;
22660;SDS011;11497;52.222;21.246;2023-02-21T07:56:23;14.38;;;2.95;;
22660;SDS011;11497;52.222;21.246;2023-02-21T07:58:51;12.07;;;3.00;;
22660;SDS011;11497;52.222;21.246;2023-02-21T08:01:21;12.07;;;2.92;;
22660;SDS011;11497;52.222;21.246;2023-02-21T08:03:51;11.73;;;3.25;;
22660;SDS011;11497;52.222;21.246;2023-02-21T08:06:18;8.85;;;3.10;;
22660;SDS011;11497;52.222;21.246;2023-02-21T08:08:47;11.25;;;3.33;;
22660;SDS011;11497;52.222;21.246;2023-02-21T08:11:14;11.32;;;3.22;;
22660;SDS011;11497;52.222;21.246;2023-02-21T08:13:43;11.45;;;2.83;;
22660;SDS011;11497;52.222;21.246;2023-02-21T08:16:10;20.25;;;3.85;;
22660;SDS011;11497;52.222;21.246;2023-02-21T08:18:39;10.15;;;3.25;;
22660;SDS011;11497;52.222;21.246;2023-02-21T08:21:07;15.85;;;3.38;;
22660;SDS011;11497;52.222;21.246;2023-02-21T08:23:36;15.13;;;4.20;;
22660;SDS011;11497;52.222;21.246;2023-02-21T08:26:04;11.80;;;4.13;;
22660;SDS011;11497;52.222;21.246;2023-02-21T08:28:33;11.15;;;3.33;;
22660;SDS011;11497;52.222;21.246;2023-02-21T08:31:02;10.55;;;3.00;;
22660;SDS011;11497;52.222;21.246;2023-02-21T08:33:30;16.00;;;3.30;;
22660;SDS011;11497;52.222;21.246;2023-02-21T08:35:58;9.88;;;3.53;;
22660;SDS011;11497;52.222;21.246;2023-02-21T08:38:26;18.45;;;4.40;;
22660;SDS011;11497;52.222;21.246;2023-02-21T08:40:54;17.45;;;4.15;;
22660;SDS011;11497;52.222;21.246;2023-02-21T08:43:23;15.10;;;4.07;;
22660;SDS011;11497;52.222;21.246;2023-02-21T08:45:51;13.30;;;4.28;;
22660;SDS011;11497;52.222;21.246;2023-02-21T08:48:19;18.67;;;3.80;;
22660;SDS011;11497;52.222;21.246;2023-02-21T08:50:47;17.00;;;4.07;;
22660;SDS011;11497;52.222;21.246;2023-02-21T08:53:15;20.73;;;4.53;;
22660;SDS011;11497;52.222;21.246;2023-02-21T08:55:43;11.68;;;3.70;;
22660;SDS011;11497;52.222;21.246;2023-02-21T08:58:12;13.15;;;3.63;;
22660;SDS011;11497;52.222;21.246;2023-02-21T09:00:39;17.90;;;3.50;;
22660;SDS011;11497;52.222;21.246;2023-02-21T09:03:08;13.88;;;3.42;;
22660;SDS011;11497;52.222;21.246;2023-02-21T09:05:35;13.75;;;3.33;;
22660;SDS011;11497;52.222;21.246;2023-02-21T09:08:04;18.58;;;4.00;;
22660;SDS011;11497;52.222;21.246;2023-02-21T09:10:35;20.77;;;5.18;;
22660;SDS011;11497;52.222;21.246;2023-02-21T09:13:03;11.45;;;2.60;;
22660;SDS011;11497;52.222;21.246;2023-02-21T09:15:31;9.27;;;3.10;;
22660;SDS011;11497;52.222;21.246;2023-02-21T09:17:59;19.08;;;4.40;;
22660;SDS011;11497;52.222;21.246;2023-02-21T09:20:27;17.13;;;3.65;;
22660;SDS011;11497;52.222;21.246;2023-02-21T09:22:55;9.88;;;3.10;;
22660;SDS011;11497;52.222;21.246;2023-02-21T09:25:23;16.60;;;3.40;;
22660;SDS011;11497;52.222;21.246;2023-02-21T09:27:52;16.63;;;3.80;;
22660;SDS011;11497;52.222;21.246;2023-02-21T09:30:22;14.15;;;3.30;;
22660;SDS011;11497;52.222;21.246;2023-02-21T09:32:53;15.50;;;3.97;;
22660;SDS011;11497;52.222;21.246;2023-02-21T09:35:22;15.25;;;3.00;;
22660;SDS011;11497;52.222;21.246;2023-02-21T09:37:50;15.52;;;4.88;;
22660;SDS011;11497;52.222;21.246;2023-02-21T09:43:15;12.95;;;3.47;;
22660;SDS011;11497;52.222;21.246;2023-02-21T09:45:48;9.32;;;2.88;;
22660;SDS011;11497;52.222;21.246;2023-02-21T09:48:20;11.88;;;3.80;;
22660;SDS011;11497;52.222;21.246;2023-02-21T09:50:51;9.35;;;3.10;;
22660;SDS011;11497;52.222;21.246;2023-02-21T09:53:23;11.52;;;3.30;;
22660;SDS011;11497;52.222;21.246;2023-02-21T09:55:54;18.05;;;4.32;;
22660;SDS011;11497;52.222;21.246;2023-02-21T09:58:30;10.20;;;3.35;;
22660;SDS011;11497;52.222;21.246;2023-02-21T10:00:59;11.70;;;2.80;;
22660;SDS011;11497;52.222;21.246;2023-02-21T10:03:59;11.52;;;3.92;;
22660;SDS011;11497;52.222;21.246;2023-02-21T10:11:43;13.95;;;3.35;;
22660;SDS011;11497;52.222;21.246;2023-02-21T10:17:16;14.73;;;4.55;;
22660;SDS011;11497;52.222;21.246;2023-02-21T10:19:47;15.30;;;4.15;;
22660;SDS011;11497;52.222;21.246;2023-02-21T10:24:51;25.55;;;7.45;;
22660;SDS011;11497;52.222;21.246;2023-02-21T10:27:20;50.13;;;14.45;;
22660;SDS011;11497;52.222;21.246;2023-02-21T10:29:53;25.20;;;7.05;;
22660;SDS011;11497;52.222;21.246;2023-02-21T10:32:30;12.52;;;4.13;;
22660;SDS011;11497;52.222;21.246;2023-02-21T10:34:59;23.33;;;7.32;;
22660;SDS011;11497;52.222;21.246;2023-02-21T10:37:36;14.95;;;4.45;;
22660;SDS011;11497;52.222;21.246;2023-02-21T10:42:46;13.30;;;3.85;;
22660;SDS011;11497;52.222;21.246;2023-02-21T10:45:22;18.42;;;5.18;;
22660;SDS011;11497;52.222;21.246;2023-02-21T10:47:57;12.40;;;3.45;;
22660;SDS011;11497;52.222;21.246;2023-02-21T10:53:07;14.65;;;3.80;;
22660;SDS011;11497;52.222;21.246;2023-02-21T10:58:58;18.17;;;6.00;;
22660;SDS011;11497;52.222;21.246;2023-02-21T11:01:33;20.42;;;4.15;;
22660;SDS011;11497;52.222;21.246;2023-02-21T11:04:21;15.20;;;5.38;;
22660;SDS011;11497;52.222;21.246;2023-02-21T11:12:02;10.55;;;3.60;;
22660;SDS011;11497;52.222;21.246;2023-02-21T11:19:51;12.35;;;4.22;;
22660;SDS011;11497;52.222;21.246;2023-02-21T11:22:25;16.73;;;4.13;;
22660;SDS011;11497;52.222;21.246;2023-02-21T11:25:14;11.95;;;4.05;;
22660;SDS011;11497;52.222;21.246;2023-02-21T11:36:12;16.67;;;4.18;;
22660;SDS011;11497;52.222;21.246;2023-02-21T11:38:58;13.68;;;4.13;;
22660;SDS011;11497;52.222;21.246;2023-02-21T11:41:45;17.23;;;5.20;;
22660;SDS011;11497;52.222;21.246;2023-02-21T11:52:33;13.40;;;4.75;;
22660;SDS011;11497;52.222;21.246;2023-02-21T11:55:15;16.42;;;5.30;;
22660;SDS011;11497;52.222;21.246;2023-02-21T12:03:41;13.98;;;4.10;;
22660;SDS011;11497;52.222;21.246;2023-02-21T12:06:28;13.43;;;4.43;;
22660;SDS011;11497;52.222;21.246;2023-02-21T12:09:12;10.90;;;4.03;;
22660;SDS011;11497;52.222;21.246;2023-02-21T12:14:49;9.52;;;3.83;;
22660;SDS011;11497;52.222;21.246;2023-02-21T12:17:23;14.95;;;4.30;;
22660;SDS011;11497;52.222;21.246;2023-02-21T12:20:23;11.07;;;4.03;;
22660;SDS011;11497;52.222;21.246;2023-02-21T12:28:41;14.18;;;4.13;;
22660;SDS011;11497;52.222;21.246;2023-02-21T12:31:23;16.25;;;4.88;;
22660;SDS011;11497;52.222;21.246;2023-02-21T12:37:00;17.55;;;4.78;;
22660;SDS011;11497;52.222;21.246;2023-02-21T12:48:05;10.88;;;3.65;;
22660;SDS011;11497;52.222;21.246;2023-02-21T12:50:39;9.55;;;3.60;;
22660;SDS011;11497;52.222;21.246;2023-02-21T12:53:12;12.32;;;3.92;;
22660;SDS011;11497;52.222;21.246;2023-02-21T12:55:46;11.02;;;4.25;;
22660;SDS011;11497;52.222;21.246;2023-02-21T13:04:10;10.20;;;3.92;;
22660;SDS011;11497;52.222;21.246;2023-02-21T13:12:56;14.32;;;4.03;;
22660;SDS011;11497;52.222;21.246;2023-02-21T13:15:29;13.48;;;4.30;;
22660;SDS011;11497;52.222;21.246;2023-02-21T13:20:28;10.68;;;3.80;;
22660;SDS011;11497;52.222;21.246;2023-02-21T13:23:03;9.80;;;3.42;;
22660;SDS011;11497;52.222;21.246;2023-02-21T13:28:57;13.80;;;4.10;;
22660;SDS011;11497;52.222;21.246;2023-02-21T13:31:35;19.42;;;3.40;;
22660;SDS011;11497;52.222;21.246;2023-02-21T13:34:08;9.40;;;3.03;;
22660;SDS011;11497;52.222;21.246;2023-02-21T13:36:44;11.20;;;2.75;;
22660;SDS011;11497;52.222;21.246;2023-02-21T13:39:14;12.48;;;3.53;;
22660;SDS011;11497;52.222;21.246;2023-02-21T13:42:17;12.73;;;3.90;;
22660;SDS011;11497;52.222;21.246;2023-02-21T13:44:47;10.88;;;3.17;;
22660;SDS011;11497;52.222;21.246;2023-02-21T13:47:20;9.85;;;2.75;;
22660;SDS011;11497;52.222;21.246;2023-02-21T13:49:56;14.05;;;3.88;;
22660;SDS011;11497;52.222;21.246;2023-02-21T14:02:56;10.45;;;2.75;;
22660;SDS011;11497;52.222;21.246;2023-02-21T14:13:23;11.73;;;2.80;;
22660;SDS011;11497;52.222;21.246;2023-02-21T14:15:56;5.45;;;2.28;;
22660;SDS011;11497;52.222;21.246;2023-02-21T14:21:06;15.50;;;4.10;;
22660;SDS011;11497;52.222;21.246;2023-02-21T14:23:41;20.25;;;4.60;;
22660;SDS011;11497;52.222;21.246;2023-02-21T14:29:26;11.88;;;3.35;;
22660;SDS011;11497;52.222;21.246;2023-02-21T14:32:26;17.67;;;3.50;;
22660;SDS011;11497;52.222;21.246;2023-02-21T14:35:01;13.10;;;3.10;;
22660;SDS011;11497;52.222;21.246;2023-02-21T14:40:46;12.45;;;3.28;;
22660;SDS011;11497;52.222;21.246;2023-02-21T14:43:21;11.98;;;4.32;;
22660;SDS011;11497;52.222;21.246;2023-02-21T15:02:15;16.52;;;3.60;;
22660;SDS011;11497;52.222;21.246;2023-02-21T15:10:12;17.80;;;3.78;;
22660;SDS011;11497;52.222;21.246;2023-02-21T15:12:45;16.30;;;4.78;;
22660;SDS011;11497;52.222;21.246;2023-02-21T15:15:28;20.60;;;4.85;;
22660;SDS011;11497;52.222;21.246;2023-02-21T15:18:05;17.30;;;4.57;;
22660;SDS011;11497;52.222;21.246;2023-02-21T15:20:39;20.45;;;4.85;;
22660;SDS011;11497;52.222;21.246;2023-02-21T15:25:41;15.10;;;4.75;;
22660;SDS011;11497;52.222;21.246;2023-02-21T15:28:18;18.15;;;5.00;;
22660;SDS011;11497;52.222;21.246;2023-02-21T15:30:56;18.27;;;4.75;;
22660;SDS011;11497;52.222;21.246;2023-02-21T15:33:26;21.90;;;5.28;;
22660;SDS011;11497;52.222;21.246;2023-02-21T15:38:34;20.33;;;5.53;;
22660;SDS011;11497;52.222;21.246;2023-02-21T15:41:08;24.92;;;5.38;;
22660;SDS011;11497;52.222;21.246;2023-02-21T15:46:40;23.05;;;5.45;;
22660;SDS011;11497;52.222;21.246;2023-02-21T15:49:37;28.60;;;5.60;;
22660;SDS011;11497;52.222;21.246;2023-02-21T15:52:06;19.40;;;5.13;;
22660;SDS011;11497;52.222;21.246;2023-02-21T15:55:10;22.67;;;6.13;;
22660;SDS011;11497;52.222;21.246;2023-02-21T15:57:46;30.15;;;6.85;;
22660;SDS011;11497;52.222;21.246;2023-02-21T16:00:33;21.85;;;7.30;;
22660;SDS011;11497;52.222;21.246;2023-02-21T16:06:09;25.50;;;6.82;;
22660;SDS011;11497;52.222;21.246;2023-02-21T16:11:49;28.88;;;8.07;;
22660;SDS011;11497;52.222;21.246;2023-02-21T16:17:05;34.90;;;8.52;;
22660;SDS011;11497;52.222;21.246;2023-02-21T16:19:40;29.50;;;8.07;;
22660;SDS011;11497;52.222;21.246;2023-02-21T16:22:33;22.17;;;6.80;;
22660;SDS011;11497;52.222;21.246;2023-02-21T16:25:23;33.03;;;9.05;;
22660;SDS011;11497;52.222;21.246;2023-02-21T16:27:55;33.90;;;10.07;;
22660;SDS011;11497;52.222;21.246;2023-02-21T16:30:29;34.90;;;8.48;;
22660;SDS011;11497;52.222;21.246;2023-02-21T16:32:59;36.70;;;8.15;;
22660;SDS011;11497;52.222;21.246;2023-02-21T16:35:30;32.05;;;9.27;;
22660;SDS011;11497;52.222;21.246;2023-02-21T16:37:59;37.80;;;6.90;;
22660;SDS011;11497;52.222;21.246;2023-02-21T16:40:29;27.77;;;7.57;;
22660;SDS011;11497;52.222;21.246;2023-02-21T16:42:59;23.10;;;8.07;;
22660;SDS011;11497;52.222;21.246;2023-02-21T16:45:28;29.45;;;7.65;;
22660;SDS011;11497;52.222;21.246;2023-02-21T16:47:59;32.65;;;9.10;;
22660;SDS011;11497;52.222;21.246;2023-02-21T16:50:32;28.38;;;7.53;;
22660;SDS011;11497;52.222;21.246;2023-02-21T16:53:05;22.13;;;6.93;;
22660;SDS011;11497;52.222;21.246;2023-02-21T16:58:14;24.08;;;6.28;;
22660;SDS011;11497;52.222;21.246;2023-02-21T17:00:46;22.40;;;5.55;;
22660;SDS011;11497;52.222;21.246;2023-02-21T17:03:14;25.38;;;5.55;;
22660;SDS011;11497;52.222;21.246;2023-02-21T17:05:42;19.60;;;5.63;;
22660;SDS011;11497;52.222;21.246;2023-02-21T17:08:10;27.80;;;6.63;;
22660;SDS011;11497;52.222;21.246;2023-02-21T17:10:39;26.92;;;6.07;;
22660;SDS011;11497;52.222;21.246;2023-02-21T17:13:07;20.35;;;5.53;;
22660;SDS011;11497;52.222;21.246;2023-02-21T17:15:35;23.25;;;6.30;;
22660;SDS011;11497;52.222;21.246;2023-02-21T17:18:03;27.20;;;6.13;;
22660;SDS011;11497;52.222;21.246;2023-02-21T17:20:31;28.95;;;5.85;;
22660;SDS011;11497;52.222;21.246;2023-02-21T17:22:59;28.83;;;7.05;;
22660;SDS011;11497;52.222;21.246;2023-02-21T17:25:28;25.48;;;6.53;;
22660;SDS011;11497;52.222;21.246;2023-02-21T17:27:55;28.40;;;7.07;;
22660;SDS011;11497;52.222;21.246;2023-02-21T17:30:24;29.60;;;7.35;;
22660;SDS011;11497;52.222;21.246;2023-02-21T17:32:52;25.92;;;5.95;;
22660;SDS011;11497;52.222;21.246;2023-02-21T17:35:20;26.67;;;9.40;;
22660;SDS011;11497;52.222;21.246;2023-02-21T17:37:50;25.17;;;6.22;;
22660;SDS011;11497;52.222;21.246;2023-02-21T17:40:19;26.70;;;6.85;;
22660;SDS011;11497;52.222;21.246;2023-02-21T17:42:48;26.48;;;5.68;;
22660;SDS011;11497;52.222;21.246;2023-02-21T17:45:17;21.55;;;6.70;;
22660;SDS011;11497;52.222;21.246;2023-02-21T17:47:47;23.25;;;6.82;;
22660;SDS011;11497;52.222;21.246;2023-02-21T17:50:17;30.83;;;6.95;;
22660;SDS011;11497;52.222;21.246;2023-02-21T17:52:45;16.90;;;5.07;;
22660;SDS011;11497;52.222;21.246;2023-02-21T17:55:18;20.70;;;5.65;;
22660;SDS011;11497;52.222;21.246;2023-02-21T17:57:47;30.85;;;9.05;;
22660;SDS011;11497;52.222;21.246;2023-02-21T18:00:25;24.60;;;8.55;;
22660;SDS011;11497;52.222;21.246;2023-02-21T18:02:55;26.92;;;8.57;;
22660;SDS011;11497;52.222;21.246;2023-02-21T18:05:23;23.08;;;7.32;;
22660;SDS011;11497;52.222;21.246;2023-02-21T18:07:51;26.23;;;6.75;;
22660;SDS011;11497;52.222;21.246;2023-02-21T18:10:20;18.73;;;5.35;;
22660;SDS011;11497;52.222;21.246;2023-02-21T18:12:50;23.60;;;5.95;;
22660;SDS011;11497;52.222;21.246;2023-02-21T18:15:19;24.73;;;5.60;;
22660;SDS011;11497;52.222;21.246;2023-02-21T18:17:48;22.67;;;6.35;;
22660;SDS011;11497;52.222;21.246;2023-02-21T18:20:16;24.85;;;6.53;;
22660;SDS011;11497;52.222;21.246;2023-02-21T18:22:45;24.95;;;7.13;;
22660;SDS011;11497;52.222;21.246;2023-02-21T18:25:15;28.45;;;6.63;;
22660;SDS011;11497;52.222;21.246;2023-02-21T18:27:43;23.15;;;6.05;;
22660;SDS011;11497;52.222;21.246;2023-02-21T18:30:12;24.30;;;5.57;;